Estación de Polizones INIA
Ultimos registro cada 15 minutos 37
| N° | Estación | Fecha / Hora | Temperatura | Humedad | Lluvia | Velocidad | Dirección | Radiación | Presion |
| 37 | Polizones INIA | 04-09-2026 09:00 | 5,4 | 98,1 | 0 | 0 | 0 | 90,3 | 1012 |
| 36 | Polizones INIA | 04-09-2026 08:45 | 5,1 | 98,1 | 0 | 0 | 0 | 87,5 | 1012 |
| 35 | Polizones INIA | 04-09-2026 08:30 | 4,2 | 98,9 | 0 | 0 | 0 | 74,2 | 1012 |
| 34 | Polizones INIA | 04-09-2026 08:15 | 3,8 | 98,4 | 0 | 0 | 0 | 65,4 | 1012 |
| 33 | Polizones INIA | 04-09-2026 08:00 | 3,7 | 98,6 | 0 | 0 | 0 | 42,1 | 1011 |
| 32 | Polizones INIA | 04-09-2026 07:45 | 3,5 | 98,3 | 0 | 0 | 0 | 11,8 | 1011 |
| 31 | Polizones INIA | 04-09-2026 07:30 | 3,2 | 98,4 | 0 | 0 | 0 | 4 | 1011 |
| 30 | Polizones INIA | 04-09-2026 07:15 | 3 | 98,2 | 0 | 0 | 0 | 1,3 | 1011 |
| 29 | Polizones INIA | 04-09-2026 07:00 | 3,1 | 98,1 | 0 | 0 | 0 | 0,3 | 1011 |
| 28 | Polizones INIA | 04-09-2026 06:45 | 3 | 98,2 | 0 | 0 | 0 | 0 | 1011 |
| 27 | Polizones INIA | 04-09-2026 06:30 | 2,8 | 98,2 | 0 | 0 | 0 | 0 | 1011 |
| 26 | Polizones INIA | 04-09-2026 06:15 | 2,8 | 98,1 | 0 | 0,2 | 221 | 0 | 1011 |
| 25 | Polizones INIA | 04-09-2026 06:00 | 3 | 98,1 | 0 | 0,1 | 156 | 0 | 1012 |
| 24 | Polizones INIA | 04-09-2026 05:45 | 2,6 | 98,2 | 0 | 0 | 0 | 0 | 1011 |
| 23 | Polizones INIA | 04-09-2026 05:30 | 2 | 98,2 | 0 | 0 | 0 | 0 | 1011 |
| 22 | Polizones INIA | 04-09-2026 05:15 | 1,9 | 97,7 | 0 | 0 | 0 | 0 | 1011 |
| 21 | Polizones INIA | 04-09-2026 05:00 | 2,1 | 97,7 | 0 | 0 | 0 | 0 | 1011 |
| 20 | Polizones INIA | 04-09-2026 04:45 | 2,1 | 97,6 | 0 | 0 | 0 | 0 | 1011 |
| 19 | Polizones INIA | 04-09-2026 04:30 | 1,9 | 98 | 0 | 0 | 0 | 0 | 1011 |
| 18 | Polizones INIA | 04-09-2026 04:15 | 1,5 | 97,8 | 0 | 0 | 0 | 0 | 1011 |
| 17 | Polizones INIA | 04-09-2026 04:00 | 2 | 96,7 | 0 | 0 | 0 | 0 | 1011 |
| 16 | Polizones INIA | 04-09-2026 03:45 | 2,2 | 97,3 | 0 | 0 | 0 | 0 | 1012 |
| 15 | Polizones INIA | 04-09-2026 03:30 | 2,4 | 97,3 | 0 | 0 | 0 | 0 | 1011 |
| 14 | Polizones INIA | 04-09-2026 03:15 | 2,3 | 97 | 0 | 0 | 0 | 0 | 1011 |
| 13 | Polizones INIA | 04-09-2026 03:00 | 2,5 | 96,7 | 0 | 0 | 0 | 0 | 1011 |
| 12 | Polizones INIA | 04-09-2026 02:45 | 2,7 | 96,5 | 0 | 0 | 0 | 0 | 1012 |
| 11 | Polizones INIA | 04-09-2026 02:30 | 2,7 | 96,8 | 0 | 0 | 0 | 0 | 1012 |
| 10 | Polizones INIA | 04-09-2026 02:15 | 2,8 | 96,7 | 0 | 0 | 0 | 0 | 1012 |
| 9 | Polizones INIA | 04-09-2026 02:00 | 3 | 96 | 0 | 0 | 0 | 0 | 1012 |
| 8 | Polizones INIA | 04-09-2026 01:45 | 3,3 | 95,6 | 0 | 0 | 0 | 0 | 1012 |
| 7 | Polizones INIA | 04-09-2026 01:30 | 3,6 | 95,4 | 0 | 0 | 0 | 0 | 1012 |
| 6 | Polizones INIA | 04-09-2026 01:15 | 3,5 | 95,1 | 0 | 0 | 0 | 0 | 1012 |
| 5 | Polizones INIA | 04-09-2026 01:00 | 3,7 | 94,4 | 0 | 0 | 0 | 0 | 1012 |
| 4 | Polizones INIA | 04-09-2026 00:45 | 4,5 | 93,8 | 0 | 0 | 0 | 0 | 1012 |
| 3 | Polizones INIA | 04-09-2026 00:30 | 4,7 | 94,1 | 0 | 0 | 0 | 0 | 1013 |
| 2 | Polizones INIA | 04-09-2026 00:15 | 4,6 | 94,6 | 0 | 0 | 0 | 0 | 1013 |
| 1 | Polizones INIA | 04-09-2026 00:00 | 4,4 | 94,5 | 0 | 0 | 0 | 0 | 1013 |